sensor_id;sensor_type;location;lat;lon;timestamp;pressure;altitude;pressure_sealevel;temperature;humidity
66664;BME280;59683;51.428;-1.994;2024-02-23T00:01:44;97789.22;;;1.16;100.00
66664;BME280;59683;51.428;-1.994;2024-02-23T00:04:09;97775.38;;;1.16;100.00
66664;BME280;59683;51.428;-1.994;2024-02-23T00:06:35;97779.25;;;1.21;100.00
66664;BME280;59683;51.428;-1.994;2024-02-23T00:09:00;97775.72;;;1.32;100.00
66664;BME280;59683;51.428;-1.994;2024-02-23T00:11:26;97766.41;;;1.39;100.00
66664;BME280;59683;51.428;-1.994;2024-02-23T00:13:53;97763.81;;;1.49;100.00
66664;BME280;59683;51.428;-1.994;2024-02-23T00:16:18;97754.22;;;1.59;100.00
66664;BME280;59683;51.428;-1.994;2024-02-23T00:18:44;97754.91;;;1.71;100.00
66664;BME280;59683;51.428;-1.994;2024-02-23T00:21:10;97752.31;;;1.81;100.00
66664;BME280;59683;51.428;-1.994;2024-02-23T00:23:35;97749.69;;;1.90;100.00
66664;BME280;59683;51.428;-1.994;2024-02-23T00:26:01;97747.66;;;2.04;100.00
66664;BME280;59683;51.428;-1.994;2024-02-23T00:28:26;97740.91;;;2.11;100.00
66664;BME280;59683;51.428;-1.994;2024-02-23T00:30:52;97749.41;;;2.23;100.00
66664;BME280;59683;51.428;-1.994;2024-02-23T00:33:18;97733.72;;;2.32;100.00
66664;BME280;59683;51.428;-1.994;2024-02-23T00:35:43;97737.16;;;2.42;100.00
66664;BME280;59683;51.428;-1.994;2024-02-23T00:38:09;97742.03;;;2.55;100.00
66664;BME280;59683;51.428;-1.994;2024-02-23T00:40:34;97737.63;;;2.65;100.00
66664;BME280;59683;51.428;-1.994;2024-02-23T00:42:59;97731.16;;;2.70;100.00
66664;BME280;59683;51.428;-1.994;2024-02-23T00:45:28;97736.38;;;2.70;100.00
66664;BME280;59683;51.428;-1.994;2024-02-23T00:47:53;97730.19;;;2.71;100.00
66664;BME280;59683;51.428;-1.994;2024-02-23T00:50:19;97731.03;;;2.71;100.00
66664;BME280;59683;51.428;-1.994;2024-02-23T00:52:44;97721.69;;;2.68;100.00
66664;BME280;59683;51.428;-1.994;2024-02-23T00:55:10;97728.16;;;2.64;100.00
66664;BME280;59683;51.428;-1.994;2024-02-23T00:57:36;97720.22;;;2.56;100.00
66664;BME280;59683;51.428;-1.994;2024-02-23T01:00:02;97722.69;;;2.58;100.00
66664;BME280;59683;51.428;-1.994;2024-02-23T01:02:30;97716.63;;;2.57;100.00
66664;BME280;59683;51.428;-1.994;2024-02-23T01:04:56;97712.78;;;2.61;100.00
66664;BME280;59683;51.428;-1.994;2024-02-23T01:07:24;97712.88;;;2.70;100.00
66664;BME280;59683;51.428;-1.994;2024-02-23T01:09:49;97702.97;;;2.73;100.00
66664;BME280;59683;51.428;-1.994;2024-02-23T01:12:14;97695.00;;;2.75;100.00
66664;BME280;59683;51.428;-1.994;2024-02-23T01:14:40;97689.63;;;2.76;100.00
66664;BME280;59683;51.428;-1.994;2024-02-23T01:17:05;97691.78;;;2.81;100.00
66664;BME280;59683;51.428;-1.994;2024-02-23T01:19:30;97689.28;;;2.89;100.00
66664;BME280;59683;51.428;-1.994;2024-02-23T01:21:56;97686.25;;;2.94;100.00
66664;BME280;59683;51.428;-1.994;2024-02-23T01:24:26;97686.78;;;2.97;100.00
66664;BME280;59683;51.428;-1.994;2024-02-23T01:26:53;97679.16;;;3.04;100.00
66664;BME280;59683;51.428;-1.994;2024-02-23T01:29:20;97681.50;;;3.07;100.00
66664;BME280;59683;51.428;-1.994;2024-02-23T01:31:45;97675.97;;;3.10;100.00
66664;BME280;59683;51.428;-1.994;2024-02-23T01:34:10;97673.91;;;3.13;100.00
66664;BME280;59683;51.428;-1.994;2024-02-23T01:36:36;97673.00;;;3.23;100.00
66664;BME280;59683;51.428;-1.994;2024-02-23T01:39:02;97665.03;;;3.24;100.00
66664;BME280;59683;51.428;-1.994;2024-02-23T01:41:27;97667.47;;;3.26;100.00
66664;BME280;59683;51.428;-1.994;2024-02-23T01:43:53;97675.03;;;3.29;100.00
66664;BME280;59683;51.428;-1.994;2024-02-23T01:46:23;97662.50;;;3.32;100.00
66664;BME280;59683;51.428;-1.994;2024-02-23T02:09:30;97644.25;;;3.40;100.00
66664;BME280;59683;51.428;-1.994;2024-02-23T02:12:03;97638.75;;;3.44;100.00
66664;BME280;59683;51.428;-1.994;2024-02-23T02:14:29;97646.41;;;3.45;100.00
66664;BME280;59683;51.428;-1.994;2024-02-23T02:16:56;97637.31;;;3.49;100.00
66664;BME280;59683;51.428;-1.994;2024-02-23T02:19:22;97632.97;;;3.40;100.00
66664;BME280;59683;51.428;-1.994;2024-02-23T02:21:47;97620.88;;;3.39;100.00
66664;BME280;59683;51.428;-1.994;2024-02-23T02:24:19;97623.63;;;3.37;100.00
66664;BME280;59683;51.428;-1.994;2024-02-23T02:26:47;97627.22;;;3.36;100.00
66664;BME280;59683;51.428;-1.994;2024-02-23T02:29:15;97614.16;;;3.36;100.00
66664;BME280;59683;51.428;-1.994;2024-02-23T02:31:41;97616.78;;;3.36;100.00
66664;BME280;59683;51.428;-1.994;2024-02-23T02:34:09;97637.53;;;3.38;100.00
66664;BME280;59683;51.428;-1.994;2024-02-23T02:36:41;97629.69;;;3.38;100.00
66664;BME280;59683;51.428;-1.994;2024-02-23T02:57:26;97638.78;;;2.98;100.00
66664;BME280;59683;51.428;-1.994;2024-02-23T03:02:27;97647.78;;;2.86;100.00
66664;BME280;59683;51.428;-1.994;2024-02-23T03:07:28;97643.06;;;2.89;100.00
66664;BME280;59683;51.428;-1.994;2024-02-23T03:09:56;97642.03;;;2.82;100.00
66664;BME280;59683;51.428;-1.994;2024-02-23T03:17:32;97639.38;;;2.64;100.00
66664;BME280;59683;51.428;-1.994;2024-02-23T03:19:59;97639.56;;;2.53;100.00
66664;BME280;59683;51.428;-1.994;2024-02-23T03:22:26;97644.09;;;2.51;100.00
66664;BME280;59683;51.428;-1.994;2024-02-23T03:27:31;97650.63;;;2.37;100.00
66664;BME280;59683;51.428;-1.994;2024-02-23T03:29:59;97648.56;;;2.31;100.00
66664;BME280;59683;51.428;-1.994;2024-02-23T03:32:26;97647.88;;;2.29;100.00
66664;BME280;59683;51.428;-1.994;2024-02-23T03:34:52;97639.13;;;2.21;100.00
66664;BME280;59683;51.428;-1.994;2024-02-23T03:37:18;97657.09;;;2.24;100.00
66664;BME280;59683;51.428;-1.994;2024-02-23T03:39:45;97654.50;;;2.24;100.00
66664;BME280;59683;51.428;-1.994;2024-02-23T03:42:10;97657.38;;;2.21;100.00
66664;BME280;59683;51.428;-1.994;2024-02-23T03:44:40;97651.91;;;2.14;100.00
66664;BME280;59683;51.428;-1.994;2024-02-23T03:47:12;97654.13;;;2.18;100.00
66664;BME280;59683;51.428;-1.994;2024-02-23T03:49:38;97661.25;;;2.16;100.00
66664;BME280;59683;51.428;-1.994;2024-02-23T03:52:22;97651.34;;;2.20;100.00
66664;BME280;59683;51.428;-1.994;2024-02-23T03:54:49;97663.84;;;2.26;100.00
66664;BME280;59683;51.428;-1.994;2024-02-23T03:57:28;97681.53;;;2.32;100.00
66664;BME280;59683;51.428;-1.994;2024-02-23T03:59:57;97675.09;;;2.27;100.00
66664;BME280;59683;51.428;-1.994;2024-02-23T04:02:31;97675.38;;;2.24;100.00
66664;BME280;59683;51.428;-1.994;2024-02-23T04:04:58;97674.03;;;2.19;100.00
66664;BME280;59683;51.428;-1.994;2024-02-23T04:07:28;97686.19;;;2.29;100.00
66664;BME280;59683;51.428;-1.994;2024-02-23T04:09:55;97675.00;;;2.18;100.00
66664;BME280;59683;51.428;-1.994;2024-02-23T04:12:21;97685.44;;;2.18;100.00
66664;BME280;59683;51.428;-1.994;2024-02-23T04:14:49;97673.31;;;2.17;100.00
66664;BME280;59683;51.428;-1.994;2024-02-23T04:17:16;97682.00;;;2.08;100.00
66664;BME280;59683;51.428;-1.994;2024-02-23T04:19:42;97673.47;;;2.06;100.00
66664;BME280;59683;51.428;-1.994;2024-02-23T04:22:09;97669.38;;;2.04;100.00
66664;BME280;59683;51.428;-1.994;2024-02-23T04:24:38;97668.53;;;2.13;100.00
66664;BME280;59683;51.428;-1.994;2024-02-23T04:27:05;97671.41;;;2.10;100.00
66664;BME280;59683;51.428;-1.994;2024-02-23T04:29:30;97674.19;;;2.08;100.00
66664;BME280;59683;51.428;-1.994;2024-02-23T04:31:57;97666.91;;;2.02;100.00
66664;BME280;59683;51.428;-1.994;2024-02-23T04:34:23;97683.63;;;2.09;100.00
66664;BME280;59683;51.428;-1.994;2024-02-23T04:36:48;97683.09;;;2.06;100.00
66664;BME280;59683;51.428;-1.994;2024-02-23T04:39:14;97693.81;;;2.03;100.00
66664;BME280;59683;51.428;-1.994;2024-02-23T04:41:39;97694.22;;;1.98;100.00
66664;BME280;59683;51.428;-1.994;2024-02-23T04:44:05;97686.56;;;1.97;100.00
66664;BME280;59683;51.428;-1.994;2024-02-23T04:46:31;97693.13;;;1.91;100.00
66664;BME280;59683;51.428;-1.994;2024-02-23T04:48:59;97707.44;;;1.97;100.00
66664;BME280;59683;51.428;-1.994;2024-02-23T04:51:24;97697.41;;;1.92;100.00
66664;BME280;59683;51.428;-1.994;2024-02-23T04:53:50;97698.50;;;1.89;100.00
66664;BME280;59683;51.428;-1.994;2024-02-23T04:56:15;97698.63;;;1.88;100.00
66664;BME280;59683;51.428;-1.994;2024-02-23T04:58:41;97707.41;;;1.87;100.00
66664;BME280;59683;51.428;-1.994;2024-02-23T05:01:08;97708.53;;;1.84;100.00
66664;BME280;59683;51.428;-1.994;2024-02-23T05:03:33;97723.09;;;1.77;100.00
66664;BME280;59683;51.428;-1.994;2024-02-23T05:06:00;97725.25;;;1.72;100.00
66664;BME280;59683;51.428;-1.994;2024-02-23T05:08:26;97729.81;;;1.70;100.00
66664;BME280;59683;51.428;-1.994;2024-02-23T05:10:52;97729.69;;;1.81;100.00
66664;BME280;59683;51.428;-1.994;2024-02-23T05:13:18;97730.34;;;1.93;100.00
66664;BME280;59683;51.428;-1.994;2024-02-23T05:15:43;97724.31;;;1.92;100.00
66664;BME280;59683;51.428;-1.994;2024-02-23T05:18:09;97735.56;;;1.93;100.00
66664;BME280;59683;51.428;-1.994;2024-02-23T05:20:35;97728.84;;;1.81;100.00
66664;BME280;59683;51.428;-1.994;2024-02-23T05:23:01;97732.00;;;1.75;100.00
66664;BME280;59683;51.428;-1.994;2024-02-23T05:25:26;97727.19;;;1.60;100.00
66664;BME280;59683;51.428;-1.994;2024-02-23T05:27:52;97736.94;;;1.58;100.00
66664;BME280;59683;51.428;-1.994;2024-02-23T05:30:18;97738.00;;;1.65;100.00
66664;BME280;59683;51.428;-1.994;2024-02-23T05:32:43;97742.97;;;1.78;100.00
66664;BME280;59683;51.428;-1.994;2024-02-23T05:35:09;97743.81;;;1.79;100.00
66664;BME280;59683;51.428;-1.994;2024-02-23T05:37:37;97751.22;;;1.83;100.00
66664;BME280;59683;51.428;-1.994;2024-02-23T05:40:04;97752.47;;;1.89;100.00
66664;BME280;59683;51.428;-1.994;2024-02-23T05:42:35;97751.09;;;1.85;100.00
66664;BME280;59683;51.428;-1.994;2024-02-23T05:45:01;97753.41;;;1.88;100.00
66664;BME280;59683;51.428;-1.994;2024-02-23T05:47:26;97743.53;;;1.82;100.00
66664;BME280;59683;51.428;-1.994;2024-02-23T05:49:51;97749.03;;;1.88;100.00
66664;BME280;59683;51.428;-1.994;2024-02-23T05:52:17;97750.38;;;1.83;100.00
66664;BME280;59683;51.428;-1.994;2024-02-23T05:54:42;97760.00;;;1.92;100.00
66664;BME280;59683;51.428;-1.994;2024-02-23T05:57:08;97757.53;;;1.90;100.00
66664;BME280;59683;51.428;-1.994;2024-02-23T05:59:33;97745.31;;;1.81;100.00
66664;BME280;59683;51.428;-1.994;2024-02-23T06:01:58;97755.75;;;1.81;100.00
66664;BME280;59683;51.428;-1.994;2024-02-23T06:04:24;97750.53;;;1.81;100.00
66664;BME280;59683;51.428;-1.994;2024-02-23T06:06:50;97746.13;;;1.82;100.00
66664;BME280;59683;51.428;-1.994;2024-02-23T06:09:16;97750.94;;;1.86;100.00
66664;BME280;59683;51.428;-1.994;2024-02-23T06:11:41;97739.69;;;1.86;100.00
66664;BME280;59683;51.428;-1.994;2024-02-23T06:14:07;97755.75;;;2.01;100.00
66664;BME280;59683;51.428;-1.994;2024-02-23T06:16:33;97743.25;;;2.04;100.00
66664;BME280;59683;51.428;-1.994;2024-02-23T06:18:58;97750.66;;;2.09;100.00
66664;BME280;59683;51.428;-1.994;2024-02-23T06:21:24;97742.69;;;2.10;100.00
66664;BME280;59683;51.428;-1.994;2024-02-23T06:23:49;97759.19;;;2.11;100.00
66664;BME280;59683;51.428;-1.994;2024-02-23T06:26:15;97758.75;;;2.06;100.00
66664;BME280;59683;51.428;-1.994;2024-02-23T06:28:40;97769.06;;;2.07;100.00
66664;BME280;59683;51.428;-1.994;2024-02-23T06:31:09;97759.03;;;2.03;100.00
66664;BME280;59683;51.428;-1.994;2024-02-23T06:33:35;97769.31;;;1.94;100.00
66664;BME280;59683;51.428;-1.994;2024-02-23T06:36:00;97770.72;;;1.89;100.00
66664;BME280;59683;51.428;-1.994;2024-02-23T06:38:26;97759.31;;;1.80;100.00
66664;BME280;59683;51.428;-1.994;2024-02-23T06:40:52;97766.88;;;1.74;100.00
66664;BME280;59683;51.428;-1.994;2024-02-23T06:43:18;97769.75;;;1.70;100.00
66664;BME280;59683;51.428;-1.994;2024-02-23T06:45:43;97753.97;;;1.62;100.00
66664;BME280;59683;51.428;-1.994;2024-02-23T06:48:09;97755.56;;;1.54;100.00
66664;BME280;59683;51.428;-1.994;2024-02-23T06:50:35;97750.78;;;1.49;100.00
66664;BME280;59683;51.428;-1.994;2024-02-23T06:53:00;97757.91;;;1.47;100.00
66664;BME280;59683;51.428;-1.994;2024-02-23T06:55:27;97747.59;;;1.36;100.00
66664;BME280;59683;51.428;-1.994;2024-02-23T06:57:52;97760.03;;;1.23;100.00
66664;BME280;59683;51.428;-1.994;2024-02-23T07:00:18;97737.97;;;1.17;100.00
66664;BME280;59683;51.428;-1.994;2024-02-23T07:02:43;97750.69;;;1.20;100.00
66664;BME280;59683;51.428;-1.994;2024-02-23T07:05:09;97756.09;;;1.28;100.00
66664;BME280;59683;51.428;-1.994;2024-02-23T07:07:35;97756.81;;;1.40;100.00
66664;BME280;59683;51.428;-1.994;2024-02-23T07:10:00;97767.50;;;1.46;100.00
66664;BME280;59683;51.428;-1.994;2024-02-23T07:12:26;97764.75;;;1.58;100.00
66664;BME280;59683;51.428;-1.994;2024-02-23T07:14:56;97763.56;;;1.72;100.00
66664;BME280;59683;51.428;-1.994;2024-02-23T07:17:22;97781.00;;;1.90;100.00
66664;BME280;59683;51.428;-1.994;2024-02-23T07:19:47;97777.03;;;1.96;100.00
66664;BME280;59683;51.428;-1.994;2024-02-23T07:22:13;97786.38;;;2.08;100.00
66664;BME280;59683;51.428;-1.994;2024-02-23T07:24:42;97790.75;;;2.17;100.00
66664;BME280;59683;51.428;-1.994;2024-02-23T07:27:08;97778.78;;;2.25;100.00
66664;BME280;59683;51.428;-1.994;2024-02-23T07:29:33;97784.28;;;2.41;100.00
66664;BME280;59683;51.428;-1.994;2024-02-23T07:31:58;97787.00;;;2.49;100.00
66664;BME280;59683;51.428;-1.994;2024-02-23T07:34:24;97776.16;;;2.54;100.00
66664;BME280;59683;51.428;-1.994;2024-02-23T07:36:52;97773.38;;;2.55;100.00
66664;BME280;59683;51.428;-1.994;2024-02-23T07:39:18;97791.38;;;2.68;100.00
66664;BME280;59683;51.428;-1.994;2024-02-23T07:41:44;97798.88;;;2.81;100.00
66664;BME280;59683;51.428;-1.994;2024-02-23T07:44:10;97790.44;;;2.97;100.00
66664;BME280;59683;51.428;-1.994;2024-02-23T07:46:35;97795.25;;;3.01;100.00
66664;BME280;59683;51.428;-1.994;2024-02-23T07:49:00;97797.97;;;3.09;100.00
66664;BME280;59683;51.428;-1.994;2024-02-23T07:51:26;97801.66;;;3.16;100.00
66664;BME280;59683;51.428;-1.994;2024-02-23T07:53:51;97800.78;;;3.26;100.00
66664;BME280;59683;51.428;-1.994;2024-02-23T07:56:16;97798.97;;;3.36;100.00
66664;BME280;59683;51.428;-1.994;2024-02-23T07:58:42;97802.84;;;3.50;100.00
66664;BME280;59683;51.428;-1.994;2024-02-23T08:01:08;97795.13;;;3.58;100.00
66664;BME280;59683;51.428;-1.994;2024-02-23T08:03:33;97810.63;;;3.69;100.00
66664;BME280;59683;51.428;-1.994;2024-02-23T08:05:58;97816.06;;;3.76;100.00
66664;BME280;59683;51.428;-1.994;2024-02-23T08:08:24;97819.31;;;3.87;100.00
66664;BME280;59683;51.428;-1.994;2024-02-23T08:10:50;97827.41;;;4.30;100.00
66664;BME280;59683;51.428;-1.994;2024-02-23T08:13:16;97823.53;;;4.78;100.00
66664;BME280;59683;51.428;-1.994;2024-02-23T08:15:43;97836.56;;;5.30;100.00
66664;BME280;59683;51.428;-1.994;2024-02-23T08:18:08;97839.50;;;5.53;100.00
66664;BME280;59683;51.428;-1.994;2024-02-23T08:20:34;97840.38;;;5.78;100.00
66664;BME280;59683;51.428;-1.994;2024-02-23T08:22:59;97833.25;;;5.96;100.00
66664;BME280;59683;51.428;-1.994;2024-02-23T08:25:24;97838.94;;;5.83;100.00
66664;BME280;59683;51.428;-1.994;2024-02-23T08:27:53;97837.69;;;5.53;100.00
66664;BME280;59683;51.428;-1.994;2024-02-23T08:30:18;97827.25;;;5.27;100.00
66664;BME280;59683;51.428;-1.994;2024-02-23T08:32:45;97827.91;;;5.03;100.00
66664;BME280;59683;51.428;-1.994;2024-02-23T08:35:11;97825.56;;;4.92;100.00
66664;BME280;59683;51.428;-1.994;2024-02-23T08:37:36;97831.44;;;4.86;100.00
66664;BME280;59683;51.428;-1.994;2024-02-23T08:40:01;97832.19;;;4.78;100.00
66664;BME280;59683;51.428;-1.994;2024-02-23T08:42:28;97828.59;;;4.79;100.00
66664;BME280;59683;51.428;-1.994;2024-02-23T08:44:53;97831.69;;;4.75;100.00
66664;BME280;59683;51.428;-1.994;2024-02-23T08:47:19;97825.41;;;4.68;100.00
66664;BME280;59683;51.428;-1.994;2024-02-23T08:49:45;97819.19;;;4.69;100.00
66664;BME280;59683;51.428;-1.994;2024-02-23T08:52:10;97830.34;;;4.71;100.00
66664;BME280;59683;51.428;-1.994;2024-02-23T08:54:36;97839.38;;;4.76;100.00
66664;BME280;59683;51.428;-1.994;2024-02-23T08:57:02;97830.22;;;4.80;100.00
66664;BME280;59683;51.428;-1.994;2024-02-23T08:59:29;97825.09;;;4.97;100.00
66664;BME280;59683;51.428;-1.994;2024-02-23T09:01:54;97829.84;;;4.93;100.00
66664;BME280;59683;51.428;-1.994;2024-02-23T09:04:19;97827.06;;;4.95;100.00
66664;BME280;59683;51.428;-1.994;2024-02-23T09:06:45;97822.94;;;4.92;100.00
66664;BME280;59683;51.428;-1.994;2024-02-23T09:09:11;97823.97;;;4.99;100.00
66664;BME280;59683;51.428;-1.994;2024-02-23T09:11:36;97825.16;;;5.05;100.00
66664;BME280;59683;51.428;-1.994;2024-02-23T09:14:02;97824.72;;;5.18;100.00
66664;BME280;59683;51.428;-1.994;2024-02-23T09:16:28;97828.41;;;5.33;100.00
66664;BME280;59683;51.428;-1.994;2024-02-23T09:18:53;97829.13;;;5.51;100.00
66664;BME280;59683;51.428;-1.994;2024-02-23T09:21:18;97837.22;;;5.66;100.00
66664;BME280;59683;51.428;-1.994;2024-02-23T09:23:44;97840.91;;;5.90;100.00
66664;BME280;59683;51.428;-1.994;2024-02-23T09:26:10;97836.88;;;6.03;100.00
66664;BME280;59683;51.428;-1.994;2024-02-23T09:28:38;97833.81;;;6.24;100.00
66664;BME280;59683;51.428;-1.994;2024-02-23T09:31:06;97830.84;;;6.52;100.00
66664;BME280;59683;51.428;-1.994;2024-02-23T09:33:31;97817.88;;;6.67;100.00
66664;BME280;59683;51.428;-1.994;2024-02-23T09:35:57;97813.25;;;6.77;100.00
66664;BME280;59683;51.428;-1.994;2024-02-23T09:38:22;97809.63;;;6.86;100.00
66664;BME280;59683;51.428;-1.994;2024-02-23T09:40:50;97785.97;;;6.86;100.00
66664;BME280;59683;51.428;-1.994;2024-02-23T09:43:16;97777.91;;;6.96;100.00
66664;BME280;59683;51.428;-1.994;2024-02-23T09:45:42;97780.69;;;6.94;100.00
66664;BME280;59683;51.428;-1.994;2024-02-23T09:48:10;97767.56;;;7.42;100.00
66664;BME280;59683;51.428;-1.994;2024-02-23T09:50:37;97767.16;;;7.84;100.00
66664;BME280;59683;51.428;-1.994;2024-02-23T09:53:04;97765.75;;;8.42;100.00
66664;BME280;59683;51.428;-1.994;2024-02-23T09:55:29;97760.75;;;8.85;100.00
66664;BME280;59683;51.428;-1.994;2024-02-23T09:57:57;97766.22;;;9.13;100.00
66664;BME280;59683;51.428;-1.994;2024-02-23T10:00:24;97762.84;;;8.90;100.00
66664;BME280;59683;51.428;-1.994;2024-02-23T10:02:50;97760.94;;;8.69;100.00
66664;BME280;59683;51.428;-1.994;2024-02-23T10:05:16;97767.53;;;8.50;100.00
66664;BME280;59683;51.428;-1.994;2024-02-23T10:07:42;97774.03;;;8.39;100.00
66664;BME280;59683;51.428;-1.994;2024-02-23T10:10:09;97775.78;;;8.24;100.00
66664;BME280;59683;51.428;-1.994;2024-02-23T10:12:36;97775.31;;;7.97;100.00
66664;BME280;59683;51.428;-1.994;2024-02-23T10:15:02;97777.88;;;7.83;100.00
66664;BME280;59683;51.428;-1.994;2024-02-23T10:17:31;97786.97;;;7.72;100.00
66664;BME280;59683;51.428;-1.994;2024-02-23T10:19:58;97784.94;;;7.82;100.00
66664;BME280;59683;51.428;-1.994;2024-02-23T10:22:24;97788.97;;;7.93;100.00
66664;BME280;59683;51.428;-1.994;2024-02-23T10:24:50;97795.78;;;8.10;100.00
66664;BME280;59683;51.428;-1.994;2024-02-23T10:27:16;97800.06;;;8.34;100.00
66664;BME280;59683;51.428;-1.994;2024-02-23T10:29:41;97812.59;;;8.32;100.00
66664;BME280;59683;51.428;-1.994;2024-02-23T10:32:07;97803.91;;;8.55;100.00
66664;BME280;59683;51.428;-1.994;2024-02-23T10:34:36;97811.50;;;8.49;100.00
66664;BME280;59683;51.428;-1.994;2024-02-23T10:37:05;97812.16;;;8.51;100.00
66664;BME280;59683;51.428;-1.994;2024-02-23T10:39:33;97813.84;;;8.82;100.00
66664;BME280;59683;51.428;-1.994;2024-02-23T10:42:03;97807.97;;;9.10;100.00
66664;BME280;59683;51.428;-1.994;2024-02-23T10:44:29;97813.25;;;9.24;100.00
66664;BME280;59683;51.428;-1.994;2024-02-23T10:46:55;97821.41;;;9.74;100.00
66664;BME280;59683;51.428;-1.994;2024-02-23T10:49:23;97818.34;;;10.07;100.00
66664;BME280;59683;51.428;-1.994;2024-02-23T10:51:51;97816.19;;;10.53;100.00
66664;BME280;59683;51.428;-1.994;2024-02-23T10:54:17;97822.78;;;11.13;100.00
66664;BME280;59683;51.428;-1.994;2024-02-23T10:56:47;97830.31;;;11.16;100.00
66664;BME280;59683;51.428;-1.994;2024-02-23T10:59:13;97831.56;;;11.55;100.00
66664;BME280;59683;51.428;-1.994;2024-02-23T11:01:39;97842.25;;;11.75;100.00
66664;BME280;59683;51.428;-1.994;2024-02-23T11:04:06;97828.00;;;12.31;100.00
66664;BME280;59683;51.428;-1.994;2024-02-23T11:06:33;97831.09;;;12.54;100.00
66664;BME280;59683;51.428;-1.994;2024-02-23T11:09:11;97833.75;;;12.61;100.00
66664;BME280;59683;51.428;-1.994;2024-02-23T11:11:37;97831.84;;;12.28;100.00
66664;BME280;59683;51.428;-1.994;2024-02-23T11:14:07;97830.75;;;11.55;100.00
66664;BME280;59683;51.428;-1.994;2024-02-23T11:16:32;97835.47;;;10.97;100.00
66664;BME280;59683;51.428;-1.994;2024-02-23T11:19:05;97831.03;;;9.96;100.00
66664;BME280;59683;51.428;-1.994;2024-02-23T11:21:37;97829.84;;;9.48;100.00
66664;BME280;59683;51.428;-1.994;2024-02-23T11:24:04;97824.91;;;9.00;100.00
66664;BME280;59683;51.428;-1.994;2024-02-23T11:26:30;97822.41;;;8.69;100.00
66664;BME280;59683;51.428;-1.994;2024-02-23T11:28:57;97826.38;;;8.65;100.00
66664;BME280;59683;51.428;-1.994;2024-02-23T11:31:24;97832.78;;;8.48;100.00
66664;BME280;59683;51.428;-1.994;2024-02-23T11:33:54;97825.66;;;8.25;100.00
66664;BME280;59683;51.428;-1.994;2024-02-23T11:36:31;97842.19;;;7.88;100.00
66664;BME280;59683;51.428;-1.994;2024-02-23T11:38:58;97848.38;;;7.64;100.00
66664;BME280;59683;51.428;-1.994;2024-02-23T11:41:25;97843.88;;;7.42;100.00
66664;BME280;59683;51.428;-1.994;2024-02-23T11:43:51;97850.69;;;7.12;100.00
66664;BME280;59683;51.428;-1.994;2024-02-23T11:46:17;97849.06;;;6.94;100.00
66664;BME280;59683;51.428;-1.994;2024-02-23T11:48:44;97853.69;;;6.92;100.00
66664;BME280;59683;51.428;-1.994;2024-02-23T11:51:10;97858.88;;;7.17;100.00
66664;BME280;59683;51.428;-1.994;2024-02-23T11:53:38;97849.53;;;7.62;100.00
66664;BME280;59683;51.428;-1.994;2024-02-23T11:56:05;97851.03;;;7.64;100.00
66664;BME280;59683;51.428;-1.994;2024-02-23T11:58:34;97841.81;;;7.60;100.00
66664;BME280;59683;51.428;-1.994;2024-02-23T12:01:03;97847.72;;;7.62;100.00
66664;BME280;59683;51.428;-1.994;2024-02-23T12:03:29;97842.78;;;7.67;100.00
66664;BME280;59683;51.428;-1.994;2024-02-23T12:06:01;97844.75;;;7.65;100.00
66664;BME280;59683;51.428;-1.994;2024-02-23T12:08:28;97843.91;;;7.34;100.00
66664;BME280;59683;51.428;-1.994;2024-02-23T12:10:56;97841.03;;;6.55;100.00
66664;BME280;59683;51.428;-1.994;2024-02-23T12:13:26;97849.88;;;6.21;100.00
66664;BME280;59683;51.428;-1.994;2024-02-23T12:15:52;97858.38;;;6.07;100.00
66664;BME280;59683;51.428;-1.994;2024-02-23T12:18:21;97848.69;;;5.99;100.00
66664;BME280;59683;51.428;-1.994;2024-02-23T12:20:49;97856.56;;;6.07;100.00
66664;BME280;59683;51.428;-1.994;2024-02-23T12:23:14;97851.84;;;6.19;100.00
66664;BME280;59683;51.428;-1.994;2024-02-23T12:25:40;97853.66;;;6.27;100.00
66664;BME280;59683;51.428;-1.994;2024-02-23T12:28:06;97847.25;;;6.29;100.00
66664;BME280;59683;51.428;-1.994;2024-02-23T12:30:31;97844.63;;;6.29;100.00
66664;BME280;59683;51.428;-1.994;2024-02-23T12:33:07;97844.78;;;6.28;100.00
66664;BME280;59683;51.428;-1.994;2024-02-23T12:35:33;97843.16;;;6.35;100.00
66664;BME280;59683;51.428;-1.994;2024-02-23T12:37:59;97833.31;;;6.45;100.00
66664;BME280;59683;51.428;-1.994;2024-02-23T12:40:24;97830.84;;;6.60;100.00
66664;BME280;59683;51.428;-1.994;2024-02-23T12:42:50;97821.13;;;6.77;100.00
66664;BME280;59683;51.428;-1.994;2024-02-23T12:45:15;97833.59;;;6.99;100.00
66664;BME280;59683;51.428;-1.994;2024-02-23T12:47:40;97836.34;;;7.30;100.00
66664;BME280;59683;51.428;-1.994;2024-02-23T12:50:06;97829.38;;;7.46;100.00
66664;BME280;59683;51.428;-1.994;2024-02-23T12:52:34;97822.16;;;7.71;100.00
66664;BME280;59683;51.428;-1.994;2024-02-23T12:54:59;97816.38;;;7.84;100.00
66664;BME280;59683;51.428;-1.994;2024-02-23T12:57:25;97816.50;;;7.90;100.00
66664;BME280;59683;51.428;-1.994;2024-02-23T12:59:50;97809.59;;;8.12;100.00
66664;BME280;59683;51.428;-1.994;2024-02-23T13:02:16;97804.00;;;8.38;100.00
66664;BME280;59683;51.428;-1.994;2024-02-23T13:04:42;97799.28;;;8.71;100.00
66664;BME280;59683;51.428;-1.994;2024-02-23T13:07:11;97787.31;;;8.98;100.00
66664;BME280;59683;51.428;-1.994;2024-02-23T13:09:36;97798.16;;;9.33;100.00
66664;BME280;59683;51.428;-1.994;2024-02-23T13:12:02;97792.59;;;9.28;100.00
66664;BME280;59683;51.428;-1.994;2024-02-23T13:14:27;97786.13;;;9.01;100.00
66664;BME280;59683;51.428;-1.994;2024-02-23T13:16:53;97780.31;;;9.20;100.00
66664;BME280;59683;51.428;-1.994;2024-02-23T13:19:18;97779.16;;;9.74;100.00
66664;BME280;59683;51.428;-1.994;2024-02-23T13:21:44;97776.63;;;10.45;100.00
66664;BME280;59683;51.428;-1.994;2024-02-23T13:24:09;97770.34;;;10.25;100.00
66664;BME280;59683;51.428;-1.994;2024-02-23T13:26:35;97770.06;;;9.98;100.00
66664;BME280;59683;51.428;-1.994;2024-02-23T13:29:00;97771.03;;;10.12;100.00
66664;BME280;59683;51.428;-1.994;2024-02-23T13:31:26;97767.28;;;10.42;100.00
66664;BME280;59683;51.428;-1.994;2024-02-23T13:33:51;97761.47;;;10.82;100.00
66664;BME280;59683;51.428;-1.994;2024-02-23T13:36:16;97768.06;;;11.27;100.00
66664;BME280;59683;51.428;-1.994;2024-02-23T13:38:42;97768.63;;;11.64;100.00